Time;durP1;ratioP1;P1;durP2;ratioP2;P2;SDS_P1;SDS_P2;PMS_P1;PMS_P2;Temp;Humidity;BMP_temperature;BMP_pressure;BME280_temperature;BME280_humidity;BME280_pressure;Samples;Min_cycle;Max_cycle;Signal;HPM_P1;HPM_P2
2022/12/27 00:00:23;;;;;;;10.90;4.60;;;;;;;2.72;82.96;100019.66;24494;1328;3030087;-64
2022/12/27 00:02:52;;;;;;;10.20;4.40;;;;;;;2.92;82.28;100016.50;24552;1309;3028380;-64
2022/12/27 00:05:21;;;;;;;9.70;4.70;;;;;;;2.88;82.22;100021.27;24527;1334;3052509;-63
2022/12/27 00:07:50;;;;;;;10.40;4.50;;;;;;;2.87;82.04;100022.66;24510;1332;3028095;-63
2022/12/27 00:10:20;;;;;;;11.60;6.10;;;;;;;2.93;82.31;100018.55;24532;1324;3050989;-63
2022/12/27 00:12:50;;;;;;;13.00;6.30;;;;;;;2.76;82.21;100032.23;24537;1334;3025126;-65
2022/12/27 00:15:19;;;;;;;11.50;5.30;;;;;;;2.48;82.72;100035.50;24512;1325;3026056;-63
2022/12/27 00:17:47;;;;;;;8.80;4.90;;;;;;;2.11;84.02;100038.05;24527;1324;3051255;-64
2022/12/27 00:20:17;;;;;;;10.20;4.90;;;;;;;2.05;85.27;100035.73;24626;1324;3028750;-64
2022/12/27 00:22:46;;;;;;;7.70;3.80;;;;;;;2.04;85.22;100034.55;24503;1334;3056624;-64
2022/12/27 00:25:15;;;;;;;6.50;3.60;;;;;;;2.75;84.35;100037.23;24550;1324;3026686;-64
2022/12/27 00:27:44;;;;;;;9.70;4.60;;;;;;;3.16;81.21;100028.46;24485;1335;3049479;-63
2022/12/27 00:30:13;;;;;;;7.60;4.20;;;;;;;3.15;80.28;100026.93;24542;1330;3028314;-63
2022/12/27 00:32:42;;;;;;;9.10;4.60;;;;;;;2.59;81.61;100029.60;24478;1326;3067593;-64
2022/12/27 00:35:11;;;;;;;8.80;4.40;;;;;;;2.36;82.91;100017.91;24541;1333;3028740;-64
2022/12/27 00:37:40;;;;;;;8.00;5.10;;;;;;;2.16;83.71;100008.23;24487;1340;3049027;-65
2022/12/27 00:40:10;;;;;;;8.90;4.50;;;;;;;2.10;84.12;99996.92;24498;1324;3028312;-65
2022/12/27 00:42:39;;;;;;;8.00;4.30;;;;;;;1.84;85.03;99992.36;24561;1332;3052813;-63
2022/12/27 00:45:09;;;;;;;7.00;4.50;;;;;;;1.95;84.71;99990.96;24497;1324;3028296;-64
2022/12/27 00:47:39;;;;;;;9.70;4.80;;;;;;;1.86;85.25;99990.77;24478;1333;3050926;-65
2022/12/27 00:50:08;;;;;;;6.90;3.80;;;;;;;1.57;87.11;99986.73;24497;1334;3027932;-64
2022/12/27 00:52:38;;;;;;;8.70;3.90;;;;;;;2.03;87.01;99979.23;24521;1335;3028606;-63
2022/12/27 00:55:07;;;;;;;16.10;5.70;;;;;;;2.34;84.96;99979.75;24499;1332;3028643;-63
2022/12/27 00:57:37;;;;;;;15.00;7.10;;;;;;;2.41;84.51;99987.73;24567;1333;3052360;-63
2022/12/27 01:00:06;;;;;;;15.60;6.50;;;;;;;2.24;84.27;99979.92;24454;1333;3028812;-66
2022/12/27 01:02:36;;;;;;;11.00;5.90;;;;;;;1.91;85.15;99986.54;24471;1339;3026765;-65
2022/12/27 01:05:06;;;;;;;12.50;5.50;;;;;;;1.78;86.04;99975.19;24502;1334;3027444;-64
2022/12/27 01:07:36;;;;;;;11.00;5.70;;;;;;;1.73;86.06;99966.64;24476;1340;3025833;-63
2022/12/27 01:10:05;;;;;;;11.70;5.90;;;;;;;1.65;86.57;99965.02;24518;1322;3028093;-64
2022/12/27 01:12:35;;;;;;;16.80;6.40;;;;;;;1.48;87.55;99963.58;24515;1337;3050135;-64
2022/12/27 01:15:05;;;;;;;6.70;3.20;;;;;;;1.33;88.16;99960.35;24477;1334;3026625;-63
2022/12/27 01:17:34;;;;;;;6.80;3.20;;;;;;;2.22;87.06;99964.37;24529;1324;3029848;-61
2022/12/27 01:20:04;;;;;;;7.40;3.70;;;;;;;2.47;84.06;99964.97;24512;1337;3026634;-63
2022/12/27 01:22:33;;;;;;;7.00;4.00;;;;;;;2.38;83.67;99960.99;24538;1333;3029461;-64
2022/12/27 01:25:02;;;;;;;7.40;4.70;;;;;;;2.11;84.00;99964.09;24469;1324;3026274;-63
2022/12/27 01:27:31;;;;;;;9.00;4.90;;;;;;;1.96;84.91;99963.65;24541;1326;3052077;-64
2022/12/27 01:30:02;;;;;;;9.90;4.60;;;;;;;1.74;85.79;99968.52;24499;1324;3028351;-64
2022/12/27 01:32:32;;;;;;;8.30;4.50;;;;;;;1.62;86.61;99974.92;24550;1327;3026713;-64
2022/12/27 01:35:02;;;;;;;8.40;4.80;;;;;;;1.51;86.64;99974.73;24515;1334;3026253;-63
2022/12/27 01:37:31;;;;;;;6.10;2.50;;;;;;;1.25;87.92;99977.02;24514;1334;3027134;-63
2022/12/27 01:40:00;;;;;;;5.30;3.10;;;;;;;1.83;85.80;99974.42;24524;1324;3029067;-64
2022/12/27 01:45:21;;;;;;;8.80;4.80;;;;;;;1.95;84.01;99959.70;24489;1333;3068810;-64
2022/12/27 01:48:03;;;;;;;8.20;4.90;;;;;;;1.90;84.48;99948.20;24495;1334;3026209;-65
2022/12/27 01:50:35;;;;;;;8.10;5.10;;;;;;;1.99;83.68;99949.95;24516;1340;3056401;-64
2022/12/27 01:53:11;;;;;;;5.90;4.00;;;;;;;1.66;84.47;99936.52;24534;1324;3028494;-64
2022/12/27 01:55:53;;;;;;;12.20;5.80;;;;;;;1.49;85.50;99934.73;24492;1334;3052463;-63
2022/12/27 01:58:30;;;;;;;14.10;5.90;;;;;;;1.26;87.21;99930.59;24501;1333;3051223;-63
2022/12/27 02:00:59;;;;;;;11.50;5.40;;;;;;;1.10;87.85;99936.00;24548;1334;3053034;-64
2022/12/27 02:03:31;;;;;;;8.10;3.50;;;;;;;1.02;88.71;99931.61;24437;1336;3028711;-63
2022/12/27 02:06:02;;;;;;;6.70;4.20;;;;;;;1.56;87.60;99929.94;24516;1324;3052783;-62
2022/12/27 02:08:40;;;;;;;8.40;5.00;;;;;;;2.05;85.35;99928.25;24498;1340;3026755;-62
2022/12/27 02:11:09;;;;;;;16.40;7.60;;;;;;;1.91;85.16;99920.71;24484;1326;3050019;-63
2022/12/27 02:13:41;;;;;;;17.20;7.20;;;;;;;1.78;85.40;99924.39;24518;1326;3028946;-62
2022/12/27 02:16:15;;;;;;;13.00;6.70;;;;;;;1.60;86.43;99915.38;24511;1334;3052514;-63
2022/12/27 02:18:45;;;;;;;15.60;7.50;;;;;;;1.54;86.76;99913.74;24562;1334;3049493;-65
2022/12/27 02:21:32;;;;;;;15.90;7.70;;;;;;;1.31;87.90;99907.90;24456;1319;3028469;-62
2022/12/27 02:24:10;;;;;;;17.70;8.40;;;;;;;1.26;88.75;99908.33;24516;1332;3053439;-63
2022/12/27 02:26:51;;;;;;;11.10;6.00;;;;;;;1.13;89.53;99906.64;24529;1324;3049624;-63
2022/12/27 02:29:29;;;;;;;15.80;7.30;;;;;;;1.82;88.21;99902.20;24469;1324;3068757;-64
2022/12/27 02:32:08;;;;;;;15.00;6.80;;;;;;;2.07;85.11;99907.99;24495;1325;3051290;-64
2022/12/27 02:35:15;;;;;;;18.90;8.20;;;;;;;1.99;85.09;99899.15;24483;1334;3056423;-64
2022/12/27 02:38:06;;;;;;;15.50;7.50;;;;;;;1.96;85.04;99898.34;24512;1333;3054496;-62
2022/12/27 02:54:56;;;;;;;12.90;6.40;;;;;;;1.79;87.34;99891.75;24507;1325;3050114;-65
2022/12/27 02:57:28;;;;;;;13.40;6.80;;;;;;;1.96;85.46;99892.82;24519;1334;3056925;-62
2022/12/27 03:03:27;;;;;;;14.50;7.60;;;;;;;2.20;84.28;99880.09;24522;1334;3053506;-63
2022/12/27 03:09:06;;;;;;;20.00;9.30;;;;;;;1.54;86.82;99884.56;24522;1334;3053991;-64
2022/12/27 03:17:32;;;;;;;13.60;5.90;;;;;;;1.41;88.43;99873.91;24530;1340;3051301;-64
2022/12/27 03:25:39;;;;;;;14.90;7.90;;;;;;;2.49;83.51;99864.82;24469;1337;3052910;-64
2022/12/27 03:33:58;;;;;;;15.40;8.40;;;;;;;1.95;84.99;99859.13;24537;1332;3053479;-63
2022/12/27 03:39:28;;;;;;;19.70;8.50;;;;;;;1.62;86.60;99851.11;24499;1334;3053107;-63
2022/12/27 03:44:51;;;;;;;13.30;6.10;;;;;;;1.59;87.27;99842.18;24508;1334;3069209;-63
2022/12/27 03:47:52;;;;;;;10.30;5.10;;;;;;;2.11;85.77;99839.30;24476;1330;3026473;-64
2022/12/27 03:50:27;;;;;;;9.70;5.60;;;;;;;2.53;83.34;99833.77;24540;1337;3049325;-63
2022/12/27 03:53:30;;;;;;;9.40;5.60;;;;;;;2.57;82.64;99825.20;24474;1324;3069442;-64
2022/12/27 03:55:58;;;;;;;16.50;6.80;;;;;;;2.22;83.10;99828.20;24495;1327;3050412;-62
2022/12/27 03:58:27;;;;;;;12.80;6.70;;;;;;;1.94;84.52;99826.33;24488;1333;3028817;-62
2022/12/27 04:00:56;;;;;;;10.10;5.50;;;;;;;1.87;85.07;99827.86;24445;1327;3069066;-64
2022/12/27 04:03:25;;;;;;;9.60;5.10;;;;;;;1.78;85.73;99829.92;24521;1327;3028437;-61
2022/12/27 04:05:55;;;;;;;9.00;4.90;;;;;;;1.56;86.32;99832.55;24493;1324;3049897;-64
2022/12/27 04:36:23;;;;;;;8.70;4.90;;;;;;;1.44;86.98;99825.17;24487;1335;3056434;-63
2022/12/27 04:38:52;;;;;;;6.60;3.60;;;;;;;1.33;87.36;99826.23;24481;1330;3025994;-64
2022/12/27 04:55:25;;;;;;;8.80;4.40;;;;;;;1.96;83.94;99811.27;24488;1331;3052656;-65
2022/12/27 04:57:54;;;;;;;7.40;4.00;;;;;;;1.75;84.35;99811.84;24511;1334;3048990;-63
2022/12/27 05:03:20;;;;;;;7.80;4.50;;;;;;;1.51;86.01;99806.23;24503;1324;3050662;-63
2022/12/27 05:05:49;;;;;;;5.60;3.60;;;;;;;1.36;86.55;99806.31;24496;1340;3055611;-62
2022/12/27 05:14:00;;;;;;;6.60;3.60;;;;;;;2.44;82.44;99794.17;24463;1331;3056715;-63
2022/12/27 05:16:33;;;;;;;5.40;3.70;;;;;;;2.29;82.66;99794.70;24515;1327;3051486;-63
2022/12/27 05:19:02;;;;;;;7.80;4.10;;;;;;;2.12;83.10;99797.80;24528;1334;3026731;-64
2022/12/27 05:21:39;;;;;;;7.00;3.90;;;;;;;2.00;83.80;99799.79;24464;1324;3027895;-63
2022/12/27 05:26:57;;;;;;;7.70;4.20;;;;;;;1.80;84.69;99801.91;24544;1334;3049911;-62
2022/12/27 05:29:29;;;;;;;6.90;4.50;;;;;;;1.80;84.98;99804.13;24532;1333;3025094;-64
2022/12/27 05:31:57;;;;;;;10.10;4.80;;;;;;;1.67;85.36;99815.44;24543;1334;3052421;-64
2022/12/27 05:34:26;;;;;;;6.00;3.40;;;;;;;1.70;85.59;99812.98;24497;1324;3028140;-64
2022/12/27 05:36:55;;;;;;;5.60;2.80;;;;;;;2.18;84.37;99810.83;24515;1327;3051071;-64
2022/12/27 05:39:24;;;;;;;6.60;3.20;;;;;;;2.67;81.98;99809.60;24564;1332;3025870;-64
2022/12/27 05:41:54;;;;;;;5.20;3.40;;;;;;;2.67;81.31;99811.67;24461;1334;3052797;-65
2022/12/27 05:44:23;;;;;;;7.20;3.80;;;;;;;2.67;81.16;99810.10;24543;1327;3028520;-63
2022/12/27 05:46:53;;;;;;;6.80;3.60;;;;;;;2.64;81.34;99801.19;24493;1334;3051954;-63
2022/12/27 05:49:22;;;;;;;5.30;3.30;;;;;;;2.41;81.59;99800.83;24494;1334;3030671;-66
2022/12/27 05:51:51;;;;;;;5.60;3.40;;;;;;;2.38;82.04;99798.81;24551;1334;3025267;-64
2022/12/27 05:54:20;;;;;;;4.70;2.90;;;;;;;2.43;82.13;99795.09;24450;1327;3050757;-66
2022/12/27 05:56:49;;;;;;;5.90;2.60;;;;;;;2.19;82.41;99786.10;24551;1333;3026359;-63
2022/12/27 05:59:18;;;;;;;4.10;2.50;;;;;;;2.10;83.02;99781.77;24457;1333;3056455;-63
2022/12/27 06:01:47;;;;;;;4.50;2.30;;;;;;;2.03;83.57;99783.83;24516;1319;3028622;-63
2022/12/27 06:04:16;;;;;;;3.50;2.20;;;;;;;2.04;83.78;99775.34;24447;1326;3049587;-64
2022/12/27 06:06:45;;;;;;;2.40;1.40;;;;;;;2.55;82.53;99767.98;24559;1326;3025674;-64
2022/12/27 06:09:14;;;;;;;3.40;1.80;;;;;;;3.19;80.08;99760.91;24452;1333;3068434;-65
2022/12/27 06:11:43;;;;;;;3.10;1.90;;;;;;;3.28;78.98;99753.95;24489;1336;3028258;-63
2022/12/27 06:14:12;;;;;;;3.00;2.30;;;;;;;3.12;79.04;99745.02;24492;1327;3028771;-62
2022/12/27 06:16:41;;;;;;;4.90;3.00;;;;;;;3.07;79.24;99745.48;24508;1328;3067441;-63
2022/12/27 06:19:11;;;;;;;5.00;3.10;;;;;;;2.82;79.32;99741.77;24527;1338;3029453;-67
2022/12/27 06:21:40;;;;;;;4.70;3.10;;;;;;;2.47;80.76;99735.17;24475;1327;3029151;-68
2022/12/27 06:24:09;;;;;;;5.50;3.10;;;;;;;2.32;81.54;99733.27;24558;1333;3068930;-63
2022/12/27 06:26:41;;;;;;;4.80;2.60;;;;;;;2.24;81.90;99734.80;24522;1337;3026693;-66
2022/12/27 06:29:10;;;;;;;4.70;3.50;;;;;;;1.95;82.87;99734.57;24470;1334;3026786;-65
2022/12/27 06:31:41;;;;;;;3.50;2.50;;;;;;;1.89;83.55;99733.14;24504;1324;3025737;-66
2022/12/27 06:34:10;;;;;;;3.30;2.10;;;;;;;1.79;84.09;99741.13;24470;1330;3027231;-64
2022/12/27 06:36:39;;;;;;;3.00;2.20;;;;;;;1.81;84.09;99737.29;24482;1324;3056137;-64
2022/12/27 06:39:08;;;;;;;3.50;1.80;;;;;;;2.22;83.69;99725.69;24529;1332;3027709;-63
2022/12/27 06:41:37;;;;;;;3.00;2.00;;;;;;;2.86;81.41;99722.82;24540;1340;3050119;-64
2022/12/27 06:44:06;;;;;;;5.00;2.50;;;;;;;2.98;80.32;99720.27;24532;1324;3026090;-65
2022/12/27 06:46:35;;;;;;;4.30;2.50;;;;;;;2.67;80.61;99719.66;24525;1334;3068622;-63
2022/12/27 06:49:04;;;;;;;4.50;2.70;;;;;;;2.56;81.45;99713.68;24526;1333;3025701;-65
2022/12/27 06:51:33;;;;;;;7.30;3.80;;;;;;;2.40;81.52;99708.70;24488;1334;3049152;-63
2022/12/27 06:54:02;;;;;;;9.10;4.00;;;;;;;2.20;82.36;99703.98;24473;1317;3026925;-66
2022/12/27 06:56:31;;;;;;;6.70;3.80;;;;;;;2.11;82.95;99697.09;24501;1334;3052330;-66
2022/12/27 06:59:00;;;;;;;7.50;4.10;;;;;;;2.02;83.36;99692.96;24467;1333;3026325;-65
2022/12/27 07:01:29;;;;;;;7.30;4.10;;;;;;;1.81;84.33;99681.14;24492;1333;3051395;-64
2022/12/27 07:03:58;;;;;;;9.30;3.90;;;;;;;1.67;84.76;99683.33;24479;1324;3028764;-63
2022/12/27 07:06:29;;;;;;;3.50;2.10;;;;;;;1.51;86.25;99681.23;24482;1326;3053903;-66
2022/12/27 07:08:58;;;;;;;3.60;1.90;;;;;;;2.06;85.22;99675.58;24484;1334;3027843;-65
2022/12/27 07:11:28;;;;;;;3.20;2.10;;;;;;;2.78;82.65;99671.11;24573;1334;3025967;-64
2022/12/27 07:13:57;;;;;;;4.60;2.40;;;;;;;3.12;81.05;99667.64;24503;1324;3025823;-65
2022/12/27 07:16:27;;;;;;;4.20;2.00;;;;;;;2.93;80.51;99661.73;24479;1334;3052021;-64
2022/12/27 07:18:57;;;;;;;3.10;1.90;;;;;;;2.81;80.82;99657.23;24476;1333;3026500;-65
2022/12/27 11:07:35;;;;;;;6.20;3.70;;;;;;;3.27;100.00;99326.52;30797;1337;3013060;-67
2022/12/27 11:10:11;;;;;;;5.20;3.20;;;;;;;4.07;100.00;99310.61;24578;1336;3026675;-69
2022/12/27 11:12:56;;;;;;;7.10;4.30;;;;;;;5.05;100.00;99296.46;24500;1331;3050232;-65
2022/12/27 11:15:26;;;;;;;6.70;3.80;;;;;;;5.22;97.47;99285.70;24519;1341;3055788;-72
2022/12/27 11:18:16;;;;;;;6.30;3.60;;;;;;;5.07;95.76;99287.54;24504;1347;3028042;-65
2022/12/27 11:20:46;;;;;;;7.40;3.70;;;;;;;4.81;96.35;99280.93;23746;1330;4611288;-67
2022/12/27 11:23:16;;;;;;;11.00;4.60;;;;;;;4.80;96.74;99279.23;24606;1329;3056175;-66
2022/12/27 11:25:56;;;;;;;5.40;3.10;;;;;;;4.63;97.90;99286.86;24421;1328;3026578;-65
2022/12/27 11:28:37;;;;;;;5.20;3.10;;;;;;;5.06;96.94;99269.84;24560;1330;3053755;-69
2022/12/27 11:31:10;;;;;;;7.10;4.00;;;;;;;5.36;94.14;99269.46;24590;1336;3049695;-68
2022/12/27 11:33:48;;;;;;;;;;;;;;;5.35;93.77;99266.08;24585;1336;3051825;-69
2022/12/27 11:36:32;;;;;;;5.20;2.90;;;;;;;5.14;94.49;99267.43;24809;1329;3049092;-68
2022/12/27 11:39:02;;;;;;;6.10;3.90;;;;;;;4.90;95.92;99268.08;24728;1329;3068629;-71
2022/12/27 11:41:37;;;;;;;3.70;2.00;;;;;;;4.83;97.07;99264.54;24576;1344;3025950;-70
2022/12/27 11:44:25;;;;;;;5.50;3.60;;;;;;;5.12;96.40;99266.80;24517;1327;3054744;-70
2022/12/27 11:46:58;;;;;;;7.00;4.20;;;;;;;5.68;93.70;99260.48;24535;1327;3052651;-68
2022/12/27 11:49:36;;;;;;;7.20;3.90;;;;;;;5.48;93.01;99266.91;24530;1334;3053783;-69
2022/12/27 11:52:27;;;;;;;8.10;4.20;;;;;;;5.23;94.64;99260.98;24443;1333;3052484;-67
2022/12/27 11:55:02;;;;;;;7.10;4.30;;;;;;;5.07;95.83;99257.14;24423;1327;3054095;-69
2022/12/27 11:57:59;;;;;;;5.10;2.70;;;;;;;5.10;96.29;99259.65;24526;1338;3049104;-73
2022/12/27 12:00:36;;;;;;;7.10;4.20;;;;;;;5.42;95.48;99259.69;24504;1333;3069791;-68
2022/12/27 12:03:27;;;;;;;8.30;4.10;;;;;;;5.74;93.70;99260.19;24499;1332;3050763;-71
2022/12/27 12:05:58;;;;;;;7.70;3.70;;;;;;;5.63;93.32;99261.38;24545;1337;3055439;-66
2022/12/27 12:08:52;;;;;;;5.10;3.80;;;;;;;5.42;94.44;99260.20;24535;1334;3026640;-69
2022/12/27 12:11:28;;;;;;;6.90;4.40;;;;;;;5.25;95.87;99247.20;24756;1337;3052551;-69
2022/12/27 12:14:20;;;;;;;4.80;2.30;;;;;;;5.22;96.32;99253.39;24557;1324;3049702;-75
2022/12/27 12:16:59;;;;;;;4.20;2.90;;;;;;;5.75;94.68;99244.51;24497;1334;3053029;-72
2022/12/27 12:19:34;;;;;;;6.40;3.70;;;;;;;5.93;93.35;99240.44;24526;1334;3047483;-72
2022/12/27 12:22:18;;;;;;;6.60;3.60;;;;;;;5.83;93.26;99240.52;24429;1342;3070215;-68
2022/12/27 12:25:12;;;;;;;6.60;3.60;;;;;;;5.76;93.73;99245.19;24498;1337;3049330;-70
2022/12/27 12:27:50;;;;;;;7.80;4.70;;;;;;;5.68;94.74;99246.55;24517;1336;3056684;-72
2022/12/27 12:30:25;;;;;;;4.80;2.70;;;;;;;5.57;95.32;99241.84;24555;1320;3053112;-76
2022/12/27 12:33:28;;;;;;;5.90;3.20;;;;;;;6.00;94.24;99239.93;24505;1334;3053311;-71
2022/12/27 12:36:06;;;;;;;9.10;4.40;;;;;;;6.24;92.25;99239.41;24511;1327;3050940;-73
2022/12/27 12:38:49;;;;;;;7.20;4.30;;;;;;;6.08;92.81;99247.23;24504;1342;3054054;-72
2022/12/27 12:41:30;;;;;;;7.70;4.80;;;;;;;5.88;93.95;99247.10;24504;1319;3050964;-73
2022/12/27 12:44:05;;;;;;;7.50;5.00;;;;;;;5.79;94.61;99253.39;24518;1334;3067169;-66
2022/12/27 12:46:46;;;;;;;5.80;3.30;;;;;;;5.78;95.52;99254.30;24461;1341;3051552;-69
2022/12/27 12:49:55;;;;;;;6.80;3.80;;;;;;;6.15;94.96;99251.13;24476;1336;3055495;-68
2022/12/27 12:52:46;;;;;;;6.90;4.50;;;;;;;6.58;91.65;99252.08;24543;1327;3052551;-73
2022/12/27 12:56:00;;;;;;;5.80;4.40;;;;;;;6.18;93.08;99255.69;24513;1337;3053350;-73
2022/12/27 12:58:39;;;;;;;9.00;5.00;;;;;;;6.14;93.89;99253.59;24344;1349;3050171;-71
2022/12/27 13:01:23;;;;;;;8.40;5.30;;;;;;;5.96;94.81;99252.98;24375;1336;3051669;-66
2022/12/27 13:04:11;;;;;;;5.90;3.50;;;;;;;5.82;96.22;99249.59;24496;1334;3051392;-68
2022/12/27 13:07:02;;;;;;;6.50;3.80;;;;;;;6.52;94.23;99234.60;24540;1336;3068246;-69
2022/12/27 13:09:48;;;;;;;5.80;4.50;;;;;;;6.82;91.44;99237.69;24500;1327;3050062;-68
2022/12/27 13:12:37;;;;;;;8.30;4.80;;;;;;;6.50;92.10;99233.84;24498;1327;3056285;-64
2022/12/27 13:15:34;;;;;;;7.40;4.80;;;;;;;6.20;93.78;99241.14;24523;1328;3052484;-69
2022/12/27 13:18:06;;;;;;;8.10;5.50;;;;;;;6.01;95.38;99244.08;24487;1326;3053168;-69
2022/12/27 13:20:59;;;;;;;7.20;3.80;;;;;;;5.92;96.39;99241.66;24482;1328;3028782;-71
2022/12/27 13:23:46;;;;;;;6.20;3.70;;;;;;;6.39;95.06;99228.95;24515;1326;3052942;-72
2022/12/27 13:26:32;;;;;;;9.20;4.40;;;;;;;6.56;93.18;99224.69;24509;1335;3050329;-67
2022/12/27 13:29:33;;;;;;;9.00;5.10;;;;;;;6.59;92.93;99222.08;24529;1327;3067376;-68
2022/12/27 13:32:27;;;;;;;8.40;5.40;;;;;;;6.37;93.61;99219.45;24595;1327;3051109;-72
2022/12/27 13:35:01;;;;;;;12.30;4.80;;;;;;;6.34;93.95;99226.74;24543;1334;3055350;-70
2022/12/27 13:38:11;;;;;;;5.90;3.70;;;;;;;6.16;95.21;99229.52;24547;1327;3052064;-66
2022/12/27 13:41:00;;;;;;;6.60;4.20;;;;;;;6.73;93.76;99221.77;24545;1334;3052810;-68
2022/12/27 13:43:43;;;;;;;6.70;4.60;;;;;;;6.87;91.97;99219.17;24520;1333;3051476;-70
2022/12/27 13:46:22;;;;;;;7.50;5.40;;;;;;;6.98;91.71;99221.77;24515;1329;3052421;-69
2022/12/27 13:49:03;;;;;;;9.20;6.00;;;;;;;6.68;92.17;99224.61;24562;1328;3048805;-71
2022/12/27 13:51:42;;;;;;;9.10;5.50;;;;;;;6.53;93.22;99223.95;24525;1327;3069209;-69
2022/12/27 13:54:20;;;;;;;4.50;3.00;;;;;;;6.40;94.60;99222.32;24536;1339;3050653;-73
2022/12/27 13:57:29;;;;;;;7.90;4.10;;;;;;;6.84;93.24;99220.86;24523;1336;3056271;-72
2022/12/27 14:00:09;;;;;;;6.00;4.40;;;;;;;7.24;90.47;99217.70;24531;1327;3052878;-70
2022/12/27 14:03:00;;;;;;;6.50;4.40;;;;;;;7.07;91.11;99211.40;24555;1331;3053288;-71
2022/12/27 14:05:50;;;;;;;6.30;4.30;;;;;;;6.89;91.73;99219.08;24534;1327;3049917;-69
2022/12/27 14:08:39;;;;;;;7.20;4.70;;;;;;;6.72;92.77;99220.26;24577;1340;3053097;-71
2022/12/27 14:11:29;;;;;;;5.70;3.90;;;;;;;6.53;94.28;99214.73;24575;1327;3048923;-71
2022/12/27 14:13:58;;;;;;;8.00;4.90;;;;;;;7.28;91.97;99214.01;24538;1331;3068951;-72
2022/12/27 14:16:39;;;;;;;9.50;4.80;;;;;;;7.55;89.14;99212.27;24497;1332;3026444;-74
2022/12/27 14:19:17;;;;;;;8.60;5.60;;;;;;;7.33;89.88;99208.33;24578;1332;3048946;-69
2022/12/27 14:22:19;;;;;;;8.60;5.50;;;;;;;7.16;90.79;99203.98;24533;1327;3069041;-70
2022/12/27 14:25:16;;;;;;;9.80;6.50;;;;;;;7.02;91.22;99202.58;24558;1334;3051102;-75
2022/12/27 14:28:36;;;;;;;9.10;5.30;;;;;;;6.82;92.72;99208.80;24494;1334;3056924;-67
2022/12/27 14:31:43;;;;;;;11.60;5.30;;;;;;;7.16;91.84;99198.59;24441;1336;3052199;-73
2022/12/27 14:34:29;;;;;;;11.10;4.90;;;;;;;7.37;91.05;99193.17;24507;1328;3052790;-75
2022/12/27 14:37:11;;;;;;;9.30;6.30;;;;;;;7.19;91.15;99197.05;24496;1338;3052207;-69
2022/12/27 14:39:52;;;;;;;9.60;5.60;;;;;;;6.94;92.13;99204.18;24534;1334;3052552;-71
2022/12/27 14:42:27;;;;;;;8.40;5.60;;;;;;;6.67;93.82;99198.20;24497;1327;3049457;-72
2022/12/27 14:45:15;;;;;;;4.80;3.10;;;;;;;6.73;94.66;99197.38;24540;1333;3068810;-68
2022/12/27 14:48:02;;;;;;;5.60;3.80;;;;;;;7.30;92.79;99198.70;24571;1333;3050049;-70
2022/12/27 14:50:42;;;;;;;4.80;3.80;;;;;;;7.59;90.69;99189.93;24529;1328;3056363;-70
2022/12/27 14:53:41;;;;;;;7.90;5.20;;;;;;;7.68;89.11;99192.07;24519;1327;3051898;-71
2022/12/27 14:56:48;;;;;;;7.80;5.50;;;;;;;7.30;90.42;99196.67;24564;1334;3052714;-73
2022/12/27 14:59:49;;;;;;;10.10;6.00;;;;;;;7.14;91.27;99190.34;24508;1333;3050573;-67
2022/12/27 15:02:27;;;;;;;6.10;4.20;;;;;;;7.00;91.68;99190.15;24544;1334;3053021;-72
2022/12/27 15:05:14;;;;;;;9.30;4.50;;;;;;;7.36;91.65;99189.69;24507;1334;3049339;-71
2022/12/27 15:08:06;;;;;;;10.50;5.90;;;;;;;7.75;89.03;99185.95;24562;1333;3069004;-70
2022/12/27 15:10:53;;;;;;;9.10;5.50;;;;;;;7.70;88.96;99187.76;24595;1330;3050611;-69
2022/12/27 15:13:50;;;;;;;10.90;6.50;;;;;;;7.38;89.67;99186.66;24563;1330;3056546;-68
2022/12/27 15:16:30;;;;;;;8.50;5.90;;;;;;;7.13;91.31;99192.30;24539;1333;3054189;-66
2022/12/27 15:19:23;;;;;;;11.40;7.30;;;;;;;7.26;90.53;99190.60;24492;1334;3053061;-69
2022/12/27 15:22:07;;;;;;;8.00;4.30;;;;;;;7.09;91.13;99188.64;24581;1317;3049891;-73
2022/12/27 15:24:41;;;;;;;;;;;;;;;7.59;90.49;99183.80;24560;1334;3052513;-70
2022/12/27 15:27:29;;;;;;;7.70;4.60;;;;;;;8.25;87.84;99182.00;24618;1324;3049195;-70
2022/12/27 15:30:11;;;;;;;10.30;5.60;;;;;;;7.84;87.52;99180.92;24553;1330;3070122;-70
2022/12/27 15:32:59;;;;;;;11.90;6.70;;;;;;;7.37;90.02;99179.39;24593;1324;3049893;-77
2022/12/27 15:35:41;;;;;;;9.40;5.90;;;;;;;7.21;91.21;99174.11;24559;1330;3056515;-77
2022/12/27 15:38:40;;;;;;;7.00;5.00;;;;;;;6.98;92.22;99178.77;24545;1340;3052713;-70
2022/12/27 15:41:47;;;;;;;4.90;3.30;;;;;;;7.04;93.16;99176.33;24569;1331;3053060;-70
2022/12/27 15:44:29;;;;;;;8.50;4.80;;;;;;;7.79;90.17;99177.52;24551;1324;3050133;-69
2022/12/27 15:47:33;;;;;;;8.40;4.90;;;;;;;8.14;88.29;99173.02;24568;1334;3052281;-68
2022/12/27 15:50:27;;;;;;;9.10;5.20;;;;;;;7.94;87.78;99176.52;24611;1324;3050719;-72
2022/12/27 15:52:56;;;;;;;;;;;;;;;7.78;87.96;99176.70;24561;1323;3069642;-64
2022/12/27 15:55:33;;;;;;;10.70;5.70;;;;;;;7.56;89.11;99176.84;24581;1332;3026359;-68
2022/12/27 15:58:13;;;;;;;9.70;6.20;;;;;;;7.44;89.19;99173.06;24505;1325;3049402;-76
2022/12/27 16:00:43;;;;;;;7.20;4.90;;;;;;;7.32;89.71;99173.54;24648;1323;3069239;-70
2022/12/27 16:03:35;;;;;;;14.90;6.30;;;;;;;7.67;90.05;99168.55;24647;1334;3026063;-67
2022/12/27 16:06:06;;;;;;;20.10;10.10;;;;;;;8.02;87.55;99172.61;24511;1334;3057387;-70
2022/12/27 16:08:38;;;;;;;24.90;12.40;;;;;;;7.88;87.99;99170.77;24672;1324;3026741;-67
2022/12/27 16:11:09;;;;;;;12.40;7.30;;;;;;;7.85;88.17;99168.66;24545;1334;3026027;-68
2022/12/27 16:13:43;;;;;;;13.70;8.20;;;;;;;7.51;89.48;99169.06;24557;1334;3026820;-70
2022/12/27 16:16:24;;;;;;;12.00;7.10;;;;;;;7.16;91.64;99167.73;24554;1334;3051741;-71
2022/12/27 16:19:00;;;;;;;11.00;6.10;;;;;;;7.26;91.80;99165.16;24560;1330;3048508;-67
2022/12/27 16:21:38;;;;;;;9.10;6.00;;;;;;;7.76;90.67;99166.52;24531;1324;3069228;-66
2022/12/27 16:24:13;;;;;;;12.90;6.50;;;;;;;8.47;85.73;99159.16;24539;1334;3050156;-68
2022/12/27 16:27:12;;;;;;;11.70;6.50;;;;;;;8.08;86.90;99158.19;24567;1334;3057264;-67
2022/12/27 23:08:30;;;;;;;10.20;5.10;;;;;;;4.29;92.72;99200.39;30719;1337;3014912;-66
2022/12/27 23:11:03;;;;;;;9.70;5.70;;;;;;;5.18;89.06;99208.22;24480;1330;3029250;-66
2022/12/27 23:13:32;;;;;;;;;;;;;;;6.18;85.44;99205.73;24510;1337;3050505;-70
2022/12/27 23:16:02;;;;;;;10.20;4.50;;;;;;;6.17;82.08;99208.75;24486;1330;3026723;-69
2022/12/27 23:18:31;;;;;;;6.50;3.90;;;;;;;5.71;82.83;99207.33;24463;1334;3068432;-66
2022/12/27 23:20:58;;;;;;;8.80;4.70;;;;;;;5.45;84.08;99209.33;23729;1331;3037506;-65
2022/12/27 23:23:27;;;;;;;5.70;3.90;;;;;;;5.14;84.33;99216.41;24403;1340;3026765;-65
2022/12/27 23:25:56;;;;;;;3.20;1.80;;;;;;;5.03;83.38;99242.72;24553;1334;3025911;-68
2022/12/27 23:28:25;;;;;;;2.40;1.70;;;;;;;5.44;78.50;99221.56;24561;1334;3028831;-65
2022/12/27 23:30:54;;;;;;;4.60;2.20;;;;;;;5.12;76.96;99233.66;24556;1334;3026772;-65
2022/12/27 23:33:23;;;;;;;3.30;2.00;;;;;;;4.92;76.27;99219.55;24458;1333;3067374;-67
2022/12/27 23:35:52;;;;;;;2.80;1.70;;;;;;;4.70;75.70;99246.81;24570;1324;3028166;-65
2022/12/27 23:38:21;;;;;;;2.80;1.60;;;;;;;4.26;75.87;99239.89;24479;1324;3048507;-65
2022/12/27 23:40:58;;;;;;;3.60;1.60;;;;;;;3.99;75.86;99217.67;24551;1331;3028349;-67
2022/12/27 23:43:37;;;;;;;3.80;1.70;;;;;;;3.79;76.50;99241.96;24557;1331;3052925;-65
2022/12/27 23:46:17;;;;;;;3.40;1.90;;;;;;;3.62;77.10;99213.14;24558;1337;3048663;-64
2022/12/27 23:48:46;;;;;;;4.30;1.80;;;;;;;3.43;77.78;99247.89;24495;1330;3068375;-66
2022/12/27 23:51:14;;;;;;;2.20;1.30;;;;;;;3.19;78.66;99235.04;24562;1314;3026773;-64
2022/12/27 23:53:43;;;;;;;1.20;0.70;;;;;;;3.20;78.78;99245.59;24536;1331;3048721;-65
2022/12/27 23:56:22;;;;;;;1.40;0.90;;;;;;;3.58;77.96;99249.80;24555;1317;3028406;-64
2022/12/27 23:58:52;;;;;;;2.70;1.00;;;;;;;4.12;75.21;99261.56;24562;1330;3053269;-64
